Ana Sayfa
METAR-TAF:

METAR-TAF

Havaalanları :

Guilin, Çin

Enlem: 25-20N, Boylam: 110-18E, yükseklik: 166 m

Güncel hava durumu gözlemi

Rapor saat 07:00 UTC de 24 dakika önce yapıldı.
Rüzgar doğudan 4 kt, kuzey/kuzeydoğu ve güney arasında değişken
Sıcaklık 29°C
Nem 58%
Basınç 1011 hPa
Görüş mesafesi 10 km veya daha fazla
1500 m altında bulut yok ve kümülonimbus yok

METAR: ZGKL 230700Z 10002MPS 030V180 CAVOK 29/20 Q1011 NOSIG

Saat: 15:24 (07:24 UTC)

Tahmin

Rapor saat 03:13 UTC de 4 saat ve 11 dakika önce yapıldı.
Ayın 23'si saat 06 UTC'den ayın 24'si saat 06 UTC'ye kadar geçerli Tahmin
Rüzgar kuzeydoğudan 6 kt
Görüş mesafesi 10 km veya daha fazla
3000 ft yükseklikte parçalı bulutlu
6000 ft yükseklikte parçalı çok bulutlu

TAF: ZGKL 230313Z 2306/2406 05003MPS 9999 SCT030 BKN060 TX28/2308Z TN22/2322Z

4.000'den fazla havaalanı için hava durumu gözlemleri ve tahminleri (METAR ve TAF raporları).

Kullanılabilir istasyonlar harita üzerinde sarı ve kırmızı noktalarla gösterilir.

İstasyonun adını görmek için fareyi noktanın üzerinde gezdirin.

Sonrasında hava gözlem ve tahminlerini görmek için tıklayın.

Haritayı değiştirmek için: yaklaştırmak için siyah artı işaretli yeşil düğmeye ve uzaklaştırmak için de eksi işaretli düğmeye hızla tıklayın; bitişik haritalar için yeşil okları kullanın.


METAR-TAF: